sensor_id;sensor_type;location;lat;lon;timestamp;P1;durP1;ratioP1;P2;durP2;ratioP2
33954;SDS011;20233;50.804;7.126;2023-02-07T00:00:32;18.80;;;8.02;;
33954;SDS011;20233;50.804;7.126;2023-02-07T00:02:58;23.02;;;8.40;;
33954;SDS011;20233;50.804;7.126;2023-02-07T00:05:23;24.63;;;9.15;;
33954;SDS011;20233;50.804;7.126;2023-02-07T00:07:49;20.40;;;8.52;;
33954;SDS011;20233;50.804;7.126;2023-02-07T00:10:15;19.80;;;8.80;;
33954;SDS011;20233;50.804;7.126;2023-02-07T00:12:42;21.98;;;8.32;;
33954;SDS011;20233;50.804;7.126;2023-02-07T00:15:08;18.95;;;8.52;;
33954;SDS011;20233;50.804;7.126;2023-02-07T00:17:34;19.55;;;8.98;;
33954;SDS011;20233;50.804;7.126;2023-02-07T00:19:59;17.70;;;8.70;;
33954;SDS011;20233;50.804;7.126;2023-02-07T00:22:25;19.25;;;8.98;;
33954;SDS011;20233;50.804;7.126;2023-02-07T00:24:51;23.08;;;8.18;;
33954;SDS011;20233;50.804;7.126;2023-02-07T00:27:16;20.50;;;8.23;;
33954;SDS011;20233;50.804;7.126;2023-02-07T00:29:44;23.48;;;8.80;;
33954;SDS011;20233;50.804;7.126;2023-02-07T00:32:10;20.13;;;9.02;;
33954;SDS011;20233;50.804;7.126;2023-02-07T00:34:36;22.05;;;9.25;;
33954;SDS011;20233;50.804;7.126;2023-02-07T00:37:02;20.67;;;9.95;;
33954;SDS011;20233;50.804;7.126;2023-02-07T00:39:28;22.63;;;9.23;;
33954;SDS011;20233;50.804;7.126;2023-02-07T00:41:54;24.67;;;9.73;;
33954;SDS011;20233;50.804;7.126;2023-02-07T00:44:20;22.38;;;10.13;;
33954;SDS011;20233;50.804;7.126;2023-02-07T00:46:45;19.98;;;9.75;;
33954;SDS011;20233;50.804;7.126;2023-02-07T00:49:11;25.55;;;9.88;;
33954;SDS011;20233;50.804;7.126;2023-02-07T00:51:37;22.90;;;9.30;;
33954;SDS011;20233;50.804;7.126;2023-02-07T00:54:02;21.20;;;10.07;;
33954;SDS011;20233;50.804;7.126;2023-02-07T00:56:29;21.75;;;8.63;;
33954;SDS011;20233;50.804;7.126;2023-02-07T00:58:54;18.73;;;8.52;;
33954;SDS011;20233;50.804;7.126;2023-02-07T01:01:21;20.55;;;8.18;;
33954;SDS011;20233;50.804;7.126;2023-02-07T01:03:48;23.50;;;8.75;;
33954;SDS011;20233;50.804;7.126;2023-02-07T01:06:14;21.73;;;8.48;;
33954;SDS011;20233;50.804;7.126;2023-02-07T01:08:40;22.75;;;9.63;;
33954;SDS011;20233;50.804;7.126;2023-02-07T01:11:07;24.13;;;8.75;;
33954;SDS011;20233;50.804;7.126;2023-02-07T01:13:35;22.75;;;8.93;;
33954;SDS011;20233;50.804;7.126;2023-02-07T01:16:01;27.83;;;9.95;;
33954;SDS011;20233;50.804;7.126;2023-02-07T01:18:27;23.15;;;8.32;;
33954;SDS011;20233;50.804;7.126;2023-02-07T01:20:53;20.77;;;8.52;;
33954;SDS011;20233;50.804;7.126;2023-02-07T01:23:19;22.30;;;8.77;;
33954;SDS011;20233;50.804;7.126;2023-02-07T01:25:45;21.35;;;8.30;;
33954;SDS011;20233;50.804;7.126;2023-02-07T01:28:13;22.38;;;8.85;;
33954;SDS011;20233;50.804;7.126;2023-02-07T01:30:40;20.10;;;8.75;;
33954;SDS011;20233;50.804;7.126;2023-02-07T01:33:07;25.80;;;9.05;;
33954;SDS011;20233;50.804;7.126;2023-02-07T01:35:33;21.30;;;9.02;;
33954;SDS011;20233;50.804;7.126;2023-02-07T01:37:59;22.70;;;8.63;;
33954;SDS011;20233;50.804;7.126;2023-02-07T01:40:26;19.92;;;9.50;;
33954;SDS011;20233;50.804;7.126;2023-02-07T01:42:53;17.83;;;8.70;;
33954;SDS011;20233;50.804;7.126;2023-02-07T01:45:29;22.30;;;9.20;;
33954;SDS011;20233;50.804;7.126;2023-02-07T01:48:06;20.60;;;7.53;;
33954;SDS011;20233;50.804;7.126;2023-02-07T01:50:36;18.25;;;8.25;;
33954;SDS011;20233;50.804;7.126;2023-02-07T01:53:05;20.17;;;8.00;;
33954;SDS011;20233;50.804;7.126;2023-02-07T01:55:31;21.92;;;8.45;;
33954;SDS011;20233;50.804;7.126;2023-02-07T01:58:00;25.95;;;9.00;;
33954;SDS011;20233;50.804;7.126;2023-02-07T02:00:28;19.45;;;8.38;;
33954;SDS011;20233;50.804;7.126;2023-02-07T02:02:54;15.88;;;7.10;;
33954;SDS011;20233;50.804;7.126;2023-02-07T02:05:20;20.83;;;8.27;;
33954;SDS011;20233;50.804;7.126;2023-02-07T02:07:47;19.90;;;7.97;;
33954;SDS011;20233;50.804;7.126;2023-02-07T02:10:17;16.05;;;7.07;;
33954;SDS011;20233;50.804;7.126;2023-02-07T02:21:06;16.10;;;7.53;;
33954;SDS011;20233;50.804;7.126;2023-02-07T02:26:53;17.83;;;7.35;;
33954;SDS011;20233;50.804;7.126;2023-02-07T02:35:27;19.85;;;7.22;;
33954;SDS011;20233;50.804;7.126;2023-02-07T02:38:14;17.25;;;7.78;;
33954;SDS011;20233;50.804;7.126;2023-02-07T02:40:50;15.60;;;7.65;;
33954;SDS011;20233;50.804;7.126;2023-02-07T02:46:19;16.73;;;7.80;;
33954;SDS011;20233;50.804;7.126;2023-02-07T02:48:47;16.13;;;7.80;;
33954;SDS011;20233;50.804;7.126;2023-02-07T02:51:14;22.50;;;8.00;;
33954;SDS011;20233;50.804;7.126;2023-02-07T02:53:39;22.80;;;8.07;;
33954;SDS011;20233;50.804;7.126;2023-02-07T03:02:14;22.40;;;7.40;;
33954;SDS011;20233;50.804;7.126;2023-02-07T03:10:12;21.55;;;7.80;;
33954;SDS011;20233;50.804;7.126;2023-02-07T03:15:48;20.10;;;7.90;;
33954;SDS011;20233;50.804;7.126;2023-02-07T03:21:32;15.60;;;7.63;;
33954;SDS011;20233;50.804;7.126;2023-02-07T03:24:13;24.25;;;7.85;;
33954;SDS011;20233;50.804;7.126;2023-02-07T03:26:43;18.23;;;7.78;;
33954;SDS011;20233;50.804;7.126;2023-02-07T03:29:11;17.58;;;8.23;;
33954;SDS011;20233;50.804;7.126;2023-02-07T03:31:42;21.23;;;7.57;;
33954;SDS011;20233;50.804;7.126;2023-02-07T03:34:14;17.55;;;7.88;;
33954;SDS011;20233;50.804;7.126;2023-02-07T03:36:54;19.85;;;8.35;;
33954;SDS011;20233;50.804;7.126;2023-02-07T03:39:30;17.95;;;7.60;;
33954;SDS011;20233;50.804;7.126;2023-02-07T03:41:58;22.63;;;8.02;;
33954;SDS011;20233;50.804;7.126;2023-02-07T03:44:28;20.63;;;7.90;;
33954;SDS011;20233;50.804;7.126;2023-02-07T03:46:57;16.75;;;7.90;;
33954;SDS011;20233;50.804;7.126;2023-02-07T03:49:23;17.30;;;8.18;;
33954;SDS011;20233;50.804;7.126;2023-02-07T03:51:49;15.40;;;7.45;;
33954;SDS011;20233;50.804;7.126;2023-02-07T03:54:15;19.45;;;7.82;;
33954;SDS011;20233;50.804;7.126;2023-02-07T03:56:41;19.52;;;8.15;;
33954;SDS011;20233;50.804;7.126;2023-02-07T03:59:07;20.38;;;8.38;;
33954;SDS011;20233;50.804;7.126;2023-02-07T04:01:33;22.65;;;8.40;;
33954;SDS011;20233;50.804;7.126;2023-02-07T04:04:04;15.85;;;7.57;;
33954;SDS011;20233;50.804;7.126;2023-02-07T04:06:31;18.35;;;6.78;;
33954;SDS011;20233;50.804;7.126;2023-02-07T04:08:56;21.08;;;9.05;;
33954;SDS011;20233;50.804;7.126;2023-02-07T04:11:22;20.13;;;8.77;;
33954;SDS011;20233;50.804;7.126;2023-02-07T04:13:47;17.48;;;8.70;;
33954;SDS011;20233;50.804;7.126;2023-02-07T04:16:13;16.55;;;7.72;;
33954;SDS011;20233;50.804;7.126;2023-02-07T04:18:38;16.30;;;7.40;;
33954;SDS011;20233;50.804;7.126;2023-02-07T04:21:05;19.77;;;8.25;;
33954;SDS011;20233;50.804;7.126;2023-02-07T04:23:32;17.35;;;8.40;;
33954;SDS011;20233;50.804;7.126;2023-02-07T04:26:00;20.45;;;8.05;;
33954;SDS011;20233;50.804;7.126;2023-02-07T04:28:27;18.75;;;9.68;;
33954;SDS011;20233;50.804;7.126;2023-02-07T04:30:53;19.67;;;8.52;;
33954;SDS011;20233;50.804;7.126;2023-02-07T04:33:20;20.67;;;9.40;;
33954;SDS011;20233;50.804;7.126;2023-02-07T04:35:52;17.45;;;8.23;;
33954;SDS011;20233;50.804;7.126;2023-02-07T04:38:22;18.55;;;8.38;;
33954;SDS011;20233;50.804;7.126;2023-02-07T04:40:49;22.60;;;8.77;;
33954;SDS011;20233;50.804;7.126;2023-02-07T04:43:15;18.15;;;9.75;;
33954;SDS011;20233;50.804;7.126;2023-02-07T04:45:41;21.13;;;7.85;;
33954;SDS011;20233;50.804;7.126;2023-02-07T04:48:06;19.25;;;7.70;;
33954;SDS011;20233;50.804;7.126;2023-02-07T04:50:32;16.10;;;8.38;;
33954;SDS011;20233;50.804;7.126;2023-02-07T04:52:58;20.52;;;9.25;;
33954;SDS011;20233;50.804;7.126;2023-02-07T04:55:23;21.75;;;8.00;;
33954;SDS011;20233;50.804;7.126;2023-02-07T04:57:49;22.42;;;8.80;;
33954;SDS011;20233;50.804;7.126;2023-02-07T05:00:14;18.15;;;7.70;;
33954;SDS011;20233;50.804;7.126;2023-02-07T05:02:41;16.92;;;7.20;;
33954;SDS011;20233;50.804;7.126;2023-02-07T05:05:08;18.40;;;7.90;;
33954;SDS011;20233;50.804;7.126;2023-02-07T05:07:34;20.08;;;8.32;;
33954;SDS011;20233;50.804;7.126;2023-02-07T05:09:59;19.40;;;8.02;;
33954;SDS011;20233;50.804;7.126;2023-02-07T05:12:25;20.10;;;8.57;;
33954;SDS011;20233;50.804;7.126;2023-02-07T05:14:50;16.83;;;7.50;;
33954;SDS011;20233;50.804;7.126;2023-02-07T05:17:16;16.45;;;7.55;;
33954;SDS011;20233;50.804;7.126;2023-02-07T05:19:41;16.40;;;7.88;;
33954;SDS011;20233;50.804;7.126;2023-02-07T05:22:07;20.55;;;8.27;;
33954;SDS011;20233;50.804;7.126;2023-02-07T05:24:33;17.33;;;8.13;;
33954;SDS011;20233;50.804;7.126;2023-02-07T05:26:58;18.52;;;7.90;;
33954;SDS011;20233;50.804;7.126;2023-02-07T05:29:24;23.20;;;8.93;;
33954;SDS011;20233;50.804;7.126;2023-02-07T05:31:49;19.55;;;9.48;;
33954;SDS011;20233;50.804;7.126;2023-02-07T05:34:34;19.00;;;8.35;;
33954;SDS011;20233;50.804;7.126;2023-02-07T05:36:59;23.02;;;9.13;;
33954;SDS011;20233;50.804;7.126;2023-02-07T05:39:25;20.38;;;8.23;;
33954;SDS011;20233;50.804;7.126;2023-02-07T05:41:51;21.75;;;8.63;;
33954;SDS011;20233;50.804;7.126;2023-02-07T05:44:16;15.40;;;7.65;;
33954;SDS011;20233;50.804;7.126;2023-02-07T05:46:42;17.10;;;7.88;;
33954;SDS011;20233;50.804;7.126;2023-02-07T05:49:07;21.70;;;7.93;;
33954;SDS011;20233;50.804;7.126;2023-02-07T05:51:33;17.67;;;7.05;;
33954;SDS011;20233;50.804;7.126;2023-02-07T05:53:58;17.80;;;7.18;;
33954;SDS011;20233;50.804;7.126;2023-02-07T05:56:24;21.80;;;9.10;;
33954;SDS011;20233;50.804;7.126;2023-02-07T05:58:50;15.85;;;7.20;;
33954;SDS011;20233;50.804;7.126;2023-02-07T06:01:15;15.68;;;6.35;;
33954;SDS011;20233;50.804;7.126;2023-02-07T06:03:41;14.75;;;6.22;;
33954;SDS011;20233;50.804;7.126;2023-02-07T06:06:08;13.70;;;6.07;;
33954;SDS011;20233;50.804;7.126;2023-02-07T06:08:34;13.18;;;6.00;;
33954;SDS011;20233;50.804;7.126;2023-02-07T06:11:01;13.23;;;6.32;;
33954;SDS011;20233;50.804;7.126;2023-02-07T06:13:29;11.88;;;5.35;;
33954;SDS011;20233;50.804;7.126;2023-02-07T06:15:57;11.38;;;5.53;;
33954;SDS011;20233;50.804;7.126;2023-02-07T06:18:24;14.55;;;6.10;;
33954;SDS011;20233;50.804;7.126;2023-02-07T06:20:50;10.43;;;5.32;;
33954;SDS011;20233;50.804;7.126;2023-02-07T06:23:18;12.25;;;5.20;;
33954;SDS011;20233;50.804;7.126;2023-02-07T06:25:47;12.70;;;6.07;;
33954;SDS011;20233;50.804;7.126;2023-02-07T06:28:15;13.63;;;6.22;;
33954;SDS011;20233;50.804;7.126;2023-02-07T06:30:43;15.75;;;6.00;;
33954;SDS011;20233;50.804;7.126;2023-02-07T06:33:11;11.98;;;5.15;;
33954;SDS011;20233;50.804;7.126;2023-02-07T06:35:38;11.40;;;5.97;;
33954;SDS011;20233;50.804;7.126;2023-02-07T06:38:13;14.55;;;6.28;;
33954;SDS011;20233;50.804;7.126;2023-02-07T06:40:40;12.13;;;5.93;;
33954;SDS011;20233;50.804;7.126;2023-02-07T06:43:08;16.20;;;6.13;;
33954;SDS011;20233;50.804;7.126;2023-02-07T06:45:38;11.10;;;5.65;;
33954;SDS011;20233;50.804;7.126;2023-02-07T06:48:07;12.70;;;5.97;;
33954;SDS011;20233;50.804;7.126;2023-02-07T06:50:36;12.18;;;5.85;;
33954;SDS011;20233;50.804;7.126;2023-02-07T06:53:03;13.43;;;5.22;;
33954;SDS011;20233;50.804;7.126;2023-02-07T06:55:37;9.93;;;4.53;;
33954;SDS011;20233;50.804;7.126;2023-02-07T06:58:04;15.38;;;5.97;;
33954;SDS011;20233;50.804;7.126;2023-02-07T07:00:33;12.77;;;5.57;;
33954;SDS011;20233;50.804;7.126;2023-02-07T07:02:59;12.43;;;6.30;;
33954;SDS011;20233;50.804;7.126;2023-02-07T07:05:28;13.60;;;6.68;;
33954;SDS011;20233;50.804;7.126;2023-02-07T07:07:56;13.98;;;6.30;;
33954;SDS011;20233;50.804;7.126;2023-02-07T07:10:22;15.05;;;6.57;;
33954;SDS011;20233;50.804;7.126;2023-02-07T07:12:49;16.23;;;7.70;;
33954;SDS011;20233;50.804;7.126;2023-02-07T07:15:15;17.52;;;6.15;;
33954;SDS011;20233;50.804;7.126;2023-02-07T07:17:42;12.52;;;6.03;;
33954;SDS011;20233;50.804;7.126;2023-02-07T07:20:08;13.10;;;5.90;;
33954;SDS011;20233;50.804;7.126;2023-02-07T07:22:37;16.23;;;6.55;;
33954;SDS011;20233;50.804;7.126;2023-02-07T07:25:03;14.68;;;7.13;;
33954;SDS011;20233;50.804;7.126;2023-02-07T07:27:30;15.85;;;7.07;;
33954;SDS011;20233;50.804;7.126;2023-02-07T07:29:56;14.70;;;6.85;;
33954;SDS011;20233;50.804;7.126;2023-02-07T07:32:24;12.30;;;6.43;;
33954;SDS011;20233;50.804;7.126;2023-02-07T07:34:51;15.75;;;6.63;;
33954;SDS011;20233;50.804;7.126;2023-02-07T07:37:18;15.63;;;5.75;;
33954;SDS011;20233;50.804;7.126;2023-02-07T07:39:45;10.70;;;5.45;;
33954;SDS011;20233;50.804;7.126;2023-02-07T07:42:12;13.10;;;6.15;;
33954;SDS011;20233;50.804;7.126;2023-02-07T07:44:42;10.93;;;5.50;;
33954;SDS011;20233;50.804;7.126;2023-02-07T07:47:08;10.15;;;4.90;;
33954;SDS011;20233;50.804;7.126;2023-02-07T07:49:35;13.65;;;5.05;;
33954;SDS011;20233;50.804;7.126;2023-02-07T07:52:02;12.13;;;5.15;;
33954;SDS011;20233;50.804;7.126;2023-02-07T07:54:28;8.93;;;4.43;;
33954;SDS011;20233;50.804;7.126;2023-02-07T07:56:55;8.45;;;4.57;;
33954;SDS011;20233;50.804;7.126;2023-02-07T07:59:21;13.65;;;5.15;;
33954;SDS011;20233;50.804;7.126;2023-02-07T08:01:48;9.13;;;5.03;;
33954;SDS011;20233;50.804;7.126;2023-02-07T08:04:16;11.75;;;4.88;;
33954;SDS011;20233;50.804;7.126;2023-02-07T08:06:44;9.40;;;4.63;;
33954;SDS011;20233;50.804;7.126;2023-02-07T08:09:11;9.90;;;4.68;;
33954;SDS011;20233;50.804;7.126;2023-02-07T08:11:38;10.48;;;5.30;;
33954;SDS011;20233;50.804;7.126;2023-02-07T08:14:05;10.23;;;4.97;;
33954;SDS011;20233;50.804;7.126;2023-02-07T08:16:31;8.75;;;5.45;;
33954;SDS011;20233;50.804;7.126;2023-02-07T08:18:57;11.00;;;5.10;;
33954;SDS011;20233;50.804;7.126;2023-02-07T08:21:23;8.63;;;4.70;;
33954;SDS011;20233;50.804;7.126;2023-02-07T08:23:53;9.55;;;5.10;;
33954;SDS011;20233;50.804;7.126;2023-02-07T08:26:20;8.30;;;4.88;;
33954;SDS011;20233;50.804;7.126;2023-02-07T08:28:47;8.60;;;4.70;;
33954;SDS011;20233;50.804;7.126;2023-02-07T08:31:15;10.77;;;5.05;;
33954;SDS011;20233;50.804;7.126;2023-02-07T08:33:44;9.52;;;5.15;;
33954;SDS011;20233;50.804;7.126;2023-02-07T08:36:10;8.27;;;5.20;;
33954;SDS011;20233;50.804;7.126;2023-02-07T08:38:37;9.60;;;5.30;;
33954;SDS011;20233;50.804;7.126;2023-02-07T08:41:04;9.95;;;5.53;;
33954;SDS011;20233;50.804;7.126;2023-02-07T08:43:30;10.57;;;4.95;;
33954;SDS011;20233;50.804;7.126;2023-02-07T08:45:56;9.10;;;4.63;;
33954;SDS011;20233;50.804;7.126;2023-02-07T08:48:22;10.45;;;5.97;;
33954;SDS011;20233;50.804;7.126;2023-02-07T08:50:50;8.75;;;5.72;;
33954;SDS011;20233;50.804;7.126;2023-02-07T08:53:17;14.57;;;6.80;;
33954;SDS011;20233;50.804;7.126;2023-02-07T08:55:45;13.23;;;6.93;;
33954;SDS011;20233;50.804;7.126;2023-02-07T08:58:12;10.93;;;5.72;;
33954;SDS011;20233;50.804;7.126;2023-02-07T09:00:38;10.07;;;5.47;;
33954;SDS011;20233;50.804;7.126;2023-02-07T09:03:04;12.25;;;6.13;;
33954;SDS011;20233;50.804;7.126;2023-02-07T09:05:31;9.30;;;5.63;;
33954;SDS011;20233;50.804;7.126;2023-02-07T09:07:59;12.05;;;5.65;;
33954;SDS011;20233;50.804;7.126;2023-02-07T09:10:26;9.85;;;5.07;;
33954;SDS011;20233;50.804;7.126;2023-02-07T09:12:52;9.18;;;4.72;;
33954;SDS011;20233;50.804;7.126;2023-02-07T09:15:19;9.45;;;5.00;;
33954;SDS011;20233;50.804;7.126;2023-02-07T09:17:47;7.15;;;4.53;;
33954;SDS011;20233;50.804;7.126;2023-02-07T09:20:15;8.60;;;5.35;;
33954;SDS011;20233;50.804;7.126;2023-02-07T09:22:41;10.38;;;4.93;;
33954;SDS011;20233;50.804;7.126;2023-02-07T09:25:26;8.43;;;5.10;;
33954;SDS011;20233;50.804;7.126;2023-02-07T09:27:53;9.02;;;5.38;;
33954;SDS011;20233;50.804;7.126;2023-02-07T09:30:21;9.02;;;5.63;;
33954;SDS011;20233;50.804;7.126;2023-02-07T09:32:49;10.60;;;5.60;;
33954;SDS011;20233;50.804;7.126;2023-02-07T09:35:16;10.38;;;6.00;;
33954;SDS011;20233;50.804;7.126;2023-02-07T09:37:43;9.85;;;5.93;;
33954;SDS011;20233;50.804;7.126;2023-02-07T09:40:13;9.43;;;5.68;;
33954;SDS011;20233;50.804;7.126;2023-02-07T09:42:47;12.63;;;6.97;;
33954;SDS011;20233;50.804;7.126;2023-02-07T09:45:25;11.73;;;6.50;;
33954;SDS011;20233;50.804;7.126;2023-02-07T09:48:03;11.82;;;6.85;;
33954;SDS011;20233;50.804;7.126;2023-02-07T09:50:41;13.20;;;7.45;;
33954;SDS011;20233;50.804;7.126;2023-02-07T09:54:02;8.90;;;5.70;;
33954;SDS011;20233;50.804;7.126;2023-02-07T09:56:26;11.45;;;6.28;;
33954;SDS011;20233;50.804;7.126;2023-02-07T10:01:56;12.05;;;6.88;;
33954;SDS011;20233;50.804;7.126;2023-02-07T10:04:46;11.43;;;6.63;;
33954;SDS011;20233;50.804;7.126;2023-02-07T10:07:14;9.13;;;5.80;;
33954;SDS011;20233;50.804;7.126;2023-02-07T10:09:42;10.50;;;6.90;;
33954;SDS011;20233;50.804;7.126;2023-02-07T10:15:04;11.43;;;6.70;;
33954;SDS011;20233;50.804;7.126;2023-02-07T10:31:36;13.15;;;7.57;;
33954;SDS011;20233;50.804;7.126;2023-02-07T10:34:12;11.25;;;7.38;;
33954;SDS011;20233;50.804;7.126;2023-02-07T10:36:47;14.30;;;6.65;;
33954;SDS011;20233;50.804;7.126;2023-02-07T10:39:17;9.40;;;6.55;;
33954;SDS011;20233;50.804;7.126;2023-02-07T10:41:48;11.30;;;6.97;;
33954;SDS011;20233;50.804;7.126;2023-02-07T10:44:17;10.10;;;6.20;;
33954;SDS011;20233;50.804;7.126;2023-02-07T10:46:44;10.05;;;6.10;;
33954;SDS011;20233;50.804;7.126;2023-02-07T10:49:36;10.48;;;6.45;;
33954;SDS011;20233;50.804;7.126;2023-02-07T10:52:05;13.15;;;6.80;;
33954;SDS011;20233;50.804;7.126;2023-02-07T10:54:53;10.40;;;7.20;;
33954;SDS011;20233;50.804;7.126;2023-02-07T10:57:25;11.82;;;7.00;;
33954;SDS011;20233;50.804;7.126;2023-02-07T11:02:41;10.80;;;5.82;;
33954;SDS011;20233;50.804;7.126;2023-02-07T11:07:54;9.05;;;5.50;;
33954;SDS011;20233;50.804;7.126;2023-02-07T11:10:38;10.77;;;5.53;;
33954;SDS011;20233;50.804;7.126;2023-02-07T11:13:13;11.82;;;5.32;;
33954;SDS011;20233;50.804;7.126;2023-02-07T11:19:12;11.07;;;5.82;;
33954;SDS011;20233;50.804;7.126;2023-02-07T11:21:46;9.80;;;5.85;;
33954;SDS011;20233;50.804;7.126;2023-02-07T11:26:58;11.27;;;5.93;;
33954;SDS011;20233;50.804;7.126;2023-02-07T11:29:30;8.75;;;5.53;;
33954;SDS011;20233;50.804;7.126;2023-02-07T11:32:01;11.57;;;5.32;;
33954;SDS011;20233;50.804;7.126;2023-02-07T11:39:41;7.75;;;5.45;;
33954;SDS011;20233;50.804;7.126;2023-02-07T11:42:19;8.10;;;4.80;;
33954;SDS011;20233;50.804;7.126;2023-02-07T11:44:50;8.15;;;5.50;;
33954;SDS011;20233;50.804;7.126;2023-02-07T11:47:24;7.88;;;5.10;;
33954;SDS011;20233;50.804;7.126;2023-02-07T11:49:54;8.63;;;5.30;;
33954;SDS011;20233;50.804;7.126;2023-02-07T11:52:25;8.70;;;4.97;;
33954;SDS011;20233;50.804;7.126;2023-02-07T11:54:55;9.07;;;5.25;;
33954;SDS011;20233;50.804;7.126;2023-02-07T11:57:26;10.02;;;5.00;;
33954;SDS011;20233;50.804;7.126;2023-02-07T12:00:00;7.63;;;4.97;;
33954;SDS011;20233;50.804;7.126;2023-02-07T12:02:34;8.68;;;5.28;;
33954;SDS011;20233;50.804;7.126;2023-02-07T12:05:08;6.82;;;4.72;;
33954;SDS011;20233;50.804;7.126;2023-02-07T12:07:44;8.32;;;5.18;;
33954;SDS011;20233;50.804;7.126;2023-02-07T12:10:15;8.32;;;4.72;;
33954;SDS011;20233;50.804;7.126;2023-02-07T12:18:20;8.15;;;4.68;;
33954;SDS011;20233;50.804;7.126;2023-02-07T12:21:05;8.38;;;4.68;;
33954;SDS011;20233;50.804;7.126;2023-02-07T12:24:23;10.55;;;5.55;;
33954;SDS011;20233;50.804;7.126;2023-02-07T12:27:13;7.55;;;4.68;;
33954;SDS011;20233;50.804;7.126;2023-02-07T12:32:13;8.05;;;4.78;;
33954;SDS011;20233;50.804;7.126;2023-02-07T12:34:53;8.13;;;4.60;;
33954;SDS011;20233;50.804;7.126;2023-02-07T12:37:35;8.63;;;4.72;;
33954;SDS011;20233;50.804;7.126;2023-02-07T12:48:11;7.10;;;5.03;;
33954;SDS011;20233;50.804;7.126;2023-02-07T12:50:50;7.28;;;4.45;;
33954;SDS011;20233;50.804;7.126;2023-02-07T12:54:15;9.48;;;4.60;;
33954;SDS011;20233;50.804;7.126;2023-02-07T13:12:39;5.72;;;3.90;;
33954;SDS011;20233;50.804;7.126;2023-02-07T13:15:21;5.45;;;2.95;;
33954;SDS011;20233;50.804;7.126;2023-02-07T13:18:06;9.40;;;3.88;;
33954;SDS011;20233;50.804;7.126;2023-02-07T13:20:38;7.78;;;3.55;;
33954;SDS011;20233;50.804;7.126;2023-02-07T13:23:18;6.47;;;3.03;;
33954;SDS011;20233;50.804;7.126;2023-02-07T13:25:47;5.40;;;3.25;;
33954;SDS011;20233;50.804;7.126;2023-02-07T13:28:23;6.78;;;3.35;;
33954;SDS011;20233;50.804;7.126;2023-02-07T13:31:12;5.88;;;3.50;;
33954;SDS011;20233;50.804;7.126;2023-02-07T13:33:46;7.45;;;3.60;;
33954;SDS011;20233;50.804;7.126;2023-02-07T13:44:52;7.78;;;3.22;;
33954;SDS011;20233;50.804;7.126;2023-02-07T13:47:26;9.43;;;3.80;;
33954;SDS011;20233;50.804;7.126;2023-02-07T13:53:16;5.70;;;2.67;;
33954;SDS011;20233;50.804;7.126;2023-02-07T13:55:48;6.03;;;3.05;;
33954;SDS011;20233;50.804;7.126;2023-02-07T14:01:19;5.45;;;2.67;;
33954;SDS011;20233;50.804;7.126;2023-02-07T14:06:35;6.55;;;3.30;;
33954;SDS011;20233;50.804;7.126;2023-02-07T14:11:40;5.75;;;3.13;;
33954;SDS011;20233;50.804;7.126;2023-02-07T14:22:23;4.68;;;2.42;;
33954;SDS011;20233;50.804;7.126;2023-02-07T14:27:25;4.60;;;2.53;;
33954;SDS011;20233;50.804;7.126;2023-02-07T14:30:20;5.72;;;2.50;;
33954;SDS011;20233;50.804;7.126;2023-02-07T14:33:13;4.32;;;2.38;;
33954;SDS011;20233;50.804;7.126;2023-02-07T14:38:19;6.30;;;2.38;;
33954;SDS011;20233;50.804;7.126;2023-02-07T14:40:53;4.20;;;2.40;;
33954;SDS011;20233;50.804;7.126;2023-02-07T14:51:52;4.22;;;2.53;;
33954;SDS011;20233;50.804;7.126;2023-02-07T15:05:27;4.28;;;2.53;;
33954;SDS011;20233;50.804;7.126;2023-02-07T15:08:17;6.50;;;2.65;;
33954;SDS011;20233;50.804;7.126;2023-02-07T15:10:58;5.65;;;2.38;;
33954;SDS011;20233;50.804;7.126;2023-02-07T15:18:51;3.88;;;2.10;;
33954;SDS011;20233;50.804;7.126;2023-02-07T15:24:25;4.32;;;2.30;;
33954;SDS011;20233;50.804;7.126;2023-02-07T15:26:55;5.32;;;2.28;;
33954;SDS011;20233;50.804;7.126;2023-02-07T15:29:30;3.88;;;2.25;;
33954;SDS011;20233;50.804;7.126;2023-02-07T15:31:59;4.30;;;2.45;;
33954;SDS011;20233;50.804;7.126;2023-02-07T15:34:29;5.88;;;2.63;;
33954;SDS011;20233;50.804;7.126;2023-02-07T15:36:58;4.32;;;2.35;;
33954;SDS011;20233;50.804;7.126;2023-02-07T15:39:36;4.55;;;2.65;;
33954;SDS011;20233;50.804;7.126;2023-02-07T15:42:02;3.63;;;2.10;;
33954;SDS011;20233;50.804;7.126;2023-02-07T15:44:32;4.95;;;2.50;;
33954;SDS011;20233;50.804;7.126;2023-02-07T15:47:29;4.15;;;2.40;;
33954;SDS011;20233;50.804;7.126;2023-02-07T15:55:29;4.55;;;2.30;;
33954;SDS011;20233;50.804;7.126;2023-02-07T15:58:16;6.32;;;2.95;;
33954;SDS011;20233;50.804;7.126;2023-02-07T16:00:49;4.57;;;2.63;;
33954;SDS011;20233;50.804;7.126;2023-02-07T16:03:21;4.95;;;2.80;;
33954;SDS011;20233;50.804;7.126;2023-02-07T16:06:08;5.93;;;3.00;;
33954;SDS011;20233;50.804;7.126;2023-02-07T16:08:46;5.10;;;2.55;;
33954;SDS011;20233;50.804;7.126;2023-02-07T16:14:00;5.50;;;2.90;;
33954;SDS011;20233;50.804;7.126;2023-02-07T16:19:27;6.43;;;3.78;;
33954;SDS011;20233;50.804;7.126;2023-02-07T16:24:32;6.63;;;3.22;;
33954;SDS011;20233;50.804;7.126;2023-02-07T16:27:01;6.13;;;3.20;;
33954;SDS011;20233;50.804;7.126;2023-02-07T16:29:29;5.47;;;3.13;;
33954;SDS011;20233;50.804;7.126;2023-02-07T16:31:55;8.52;;;3.25;;
33954;SDS011;20233;50.804;7.126;2023-02-07T16:34:21;6.40;;;3.15;;
33954;SDS011;20233;50.804;7.126;2023-02-07T16:36:50;6.38;;;3.28;;
33954;SDS011;20233;50.804;7.126;2023-02-07T16:39:22;6.93;;;3.35;;
33954;SDS011;20233;50.804;7.126;2023-02-07T16:41:50;8.32;;;3.90;;
33954;SDS011;20233;50.804;7.126;2023-02-07T16:44:28;7.18;;;4.25;;
33954;SDS011;20233;50.804;7.126;2023-02-07T16:46:55;12.13;;;7.00;;
33954;SDS011;20233;50.804;7.126;2023-02-07T16:49:22;13.88;;;7.10;;
33954;SDS011;20233;50.804;7.126;2023-02-07T16:51:51;14.25;;;7.53;;
33954;SDS011;20233;50.804;7.126;2023-02-07T16:54:19;14.45;;;7.78;;
33954;SDS011;20233;50.804;7.126;2023-02-07T16:56:47;12.63;;;7.38;;
33954;SDS011;20233;50.804;7.126;2023-02-07T16:59:18;15.30;;;7.80;;
33954;SDS011;20233;50.804;7.126;2023-02-07T17:01:48;12.32;;;7.85;;
33954;SDS011;20233;50.804;7.126;2023-02-07T17:04:16;11.70;;;5.85;;
33954;SDS011;20233;50.804;7.126;2023-02-07T17:06:44;9.20;;;5.55;;
33954;SDS011;20233;50.804;7.126;2023-02-07T17:09:15;7.97;;;6.15;;
33954;SDS011;20233;50.804;7.126;2023-02-07T17:11:43;9.02;;;6.55;;
33954;SDS011;20233;50.804;7.126;2023-02-07T17:14:09;8.45;;;5.93;;
33954;SDS011;20233;50.804;7.126;2023-02-07T17:16:36;8.88;;;6.10;;
33954;SDS011;20233;50.804;7.126;2023-02-07T17:19:10;9.27;;;4.93;;
33954;SDS011;20233;50.804;7.126;2023-02-07T17:21:39;10.30;;;6.22;;
33954;SDS011;20233;50.804;7.126;2023-02-07T17:24:07;12.20;;;6.05;;
33954;SDS011;20233;50.804;7.126;2023-02-07T17:26:34;8.18;;;5.05;;
33954;SDS011;20233;50.804;7.126;2023-02-07T17:29:02;12.57;;;6.47;;
33954;SDS011;20233;50.804;7.126;2023-02-07T17:31:28;12.35;;;6.35;;
33954;SDS011;20233;50.804;7.126;2023-02-07T17:33:56;11.25;;;6.90;;
33954;SDS011;20233;50.804;7.126;2023-02-07T17:36:22;11.90;;;7.05;;
33954;SDS011;20233;50.804;7.126;2023-02-07T17:38:49;15.30;;;7.40;;
33954;SDS011;20233;50.804;7.126;2023-02-07T17:41:15;17.05;;;8.95;;
33954;SDS011;20233;50.804;7.126;2023-02-07T17:43:44;18.35;;;10.00;;
33954;SDS011;20233;50.804;7.126;2023-02-07T17:46:18;26.23;;;11.07;;
33954;SDS011;20233;50.804;7.126;2023-02-07T17:48:48;22.88;;;11.80;;
33954;SDS011;20233;50.804;7.126;2023-02-07T17:51:20;23.10;;;10.80;;
33954;SDS011;20233;50.804;7.126;2023-02-07T17:53:51;20.27;;;10.20;;
33954;SDS011;20233;50.804;7.126;2023-02-07T17:56:25;25.10;;;10.52;;